Albion, Arkansas
Current Conditions -  °F | °C
As of 5:56 PM on Friday 31 Oct 2014 (Local Time) from KSRC Reporting Station
Clear Clear  
Wind Chill: 52°   Ceiling: Unl
Heat Index: 52°   Visibility: 10mi
Dew Point: 21°   Wind: 14mph
Humidity: 30%   Direction: 360°N
Pressure: 30.28"   Gusts: 21mph
Location:  35.2662°N, 91.8491°W
Report Text: KSRC 312256Z AUTO 36012G18KT 10SM CLR 11/M06 A3028 RMK AO2 SLP262 T01111061 TSNO
Loading
Personal Weather Stations






























Interactive Weather Map
Tropical Storm Tracking
New forecast layout! Learn more

10-Day Weather Forecast

Advertisements
Track Severe Weather on mobile